Time;durP1;ratioP1;P1;durP2;ratioP2;P2;SDS_P1;SDS_P2;PMS_P1;PMS_P2;Temp;Humidity;BMP_temperature;BMP_pressure;BME280_temperature;BME280_humidity;BME280_pressure;Samples;Min_cycle;Max_cycle;Signal;HPM_P1;HPM_P2
2022/10/29 00:00:04;;;;;;;2.67;1.73;;;21.00;96.90;;;;;;6151293;23;45201;-70
2022/10/29 00:02:30;;;;;;;3.03;1.65;;;21.00;96.90;;;;;;6148675;23;46372;-70
2022/10/29 00:04:57;;;;;;;3.05;2.03;;;21.00;97.00;;;;;;6150019;23;45198;-69
2022/10/29 00:07:24;;;;;;;3.97;1.73;;;21.00;97.00;;;;;;6151037;23;45393;-70
2022/10/29 00:09:50;;;;;;;5.43;1.63;;;21.00;97.00;;;;;;6151277;23;45290;-70
2022/10/29 00:12:19;;;;;;;2.75;1.92;;;21.00;97.00;;;;;;6151148;23;46537;-70
2022/10/29 00:14:45;;;;;;;3.22;2.00;;;21.00;97.00;;;;;;6151644;23;45274;-71
2022/10/29 00:17:12;;;;;;;3.33;1.73;;;21.00;97.00;;;;;;6151496;23;45237;-70
2022/10/29 00:19:39;;;;;;;3.75;1.60;;;21.00;97.00;;;;;;6150372;23;45276;-70
2022/10/29 00:22:06;;;;;;;3.15;1.73;;;21.00;97.00;;;;;;6151855;23;45256;-70
2022/10/29 00:24:33;;;;;;;3.47;1.98;;;21.00;97.00;;;;;;6150566;23;45229;-70
2022/10/29 00:26:59;;;;;;;3.42;2.10;;;21.00;96.90;;;;;;6151872;23;45302;-70
2022/10/29 00:29:28;;;;;;;3.53;1.98;;;21.00;96.90;;;;;;6151727;23;45392;-70
2022/10/29 00:31:54;;;;;;;3.53;1.63;;;21.00;96.90;;;;;;6149440;23;45412;-69
2022/10/29 00:34:21;;;;;;;3.65;1.40;;;21.00;96.90;;;;;;6151420;23;45357;-70
2022/10/29 00:36:48;;;;;;;3.38;1.50;;;21.00;96.90;;;;;;6150653;23;45245;-69
2022/10/29 00:39:16;;;;;;;4.63;1.60;;;21.00;97.00;;;;;;6151659;23;45359;-70
2022/10/29 00:41:43;;;;;;;3.53;1.73;;;21.00;97.00;;;;;;6148481;23;45456;-69
2022/10/29 00:44:29;;;;;;;4.02;1.68;;;21.00;97.00;;;;;;6126569;23;1117613;-71
2022/10/29 00:47:02;;;;;;;2.45;1.90;;;20.90;97.00;;;;;;6153467;23;45158;-70
2022/10/29 00:49:31;;;;;;;3.35;1.90;;;20.90;97.00;;;;;;6151935;23;46516;-69
2022/10/29 00:52:00;;;;;;;2.70;1.83;;;21.00;97.10;;;;;;6151813;23;45226;-70
2022/10/29 00:54:30;;;;;;;3.35;1.92;;;20.90;97.10;;;;;;6152653;23;45335;-69
2022/10/29 00:57:00;;;;;;;1.95;1.45;;;20.90;97.10;;;;;;6152933;23;45318;-70
2022/10/29 00:59:28;;;;;;;2.28;1.55;;;20.90;97.10;;;;;;6152746;23;46692;-71
2022/10/29 01:01:55;;;;;;;4.20;1.73;;;21.00;97.00;;;;;;6152295;23;45161;-70
2022/10/29 01:04:24;;;;;;;5.70;1.80;;;21.00;97.00;;;;;;6152952;23;45266;-70
2022/10/29 01:06:51;;;;;;;3.00;1.85;;;21.00;97.00;;;;;;6153188;23;45368;-70
2022/10/29 01:09:18;;;;;;;5.28;1.92;;;21.00;97.00;;;;;;6152909;23;47562;-70
2022/10/29 01:11:58;;;;;;;2.72;1.50;;;21.00;96.90;;;;;;6151514;23;45226;-70
2022/10/29 01:14:35;;;;;;;3.45;1.85;;;20.90;96.90;;;;;;6153220;23;45231;-70
2022/10/29 01:17:10;;;;;;;4.63;1.63;;;21.00;96.90;;;;;;6152679;23;45419;-70
2022/10/29 01:20:08;;;;;;;3.15;1.90;;;20.90;96.80;;;;;;6153125;23;45365;-70
2022/10/29 01:22:42;;;;;;;4.13;1.90;;;20.90;96.80;;;;;;6152529;23;45817;-70
2022/10/29 01:25:34;;;;;;;4.30;1.73;;;20.90;96.80;;;;;;6153149;23;45453;-70
2022/10/29 01:28:11;;;;;;;1.75;1.52;;;20.90;96.80;;;;;;6152699;23;45214;-70
2022/10/29 01:30:59;;;;;;;2.58;1.60;;;21.00;96.90;;;;;;6152520;23;45226;-70
2022/10/29 01:33:36;;;;;;;4.03;2.05;;;21.00;96.90;;;;;;6152110;23;45589;-70
2022/10/29 01:36:12;;;;;;;2.63;1.70;;;20.90;96.80;;;;;;6153089;23;45372;-70
2022/10/29 01:38:46;;;;;;;2.42;1.60;;;20.90;97.30;;;;;;6152196;23;45301;-70
2022/10/29 01:41:20;;;;;;;3.72;1.80;;;21.00;96.90;;;;;;6149882;23;46354;-70
2022/10/29 01:43:51;;;;;;;4.00;1.85;;;20.90;96.80;;;;;;6151252;23;45193;-70
2022/10/29 01:46:23;;;;;;;4.57;1.40;;;21.00;96.90;;;;;;6152167;23;45349;-70
2022/10/29 01:48:54;;;;;;;2.50;1.95;;;20.90;96.90;;;;;;6152875;23;45274;-71
2022/10/29 01:51:23;;;;;;;3.58;1.80;;;20.90;96.80;;;;;;6148899;23;45451;-70
2022/10/29 01:53:51;;;;;;;3.65;1.98;;;21.00;96.80;;;;;;6152425;23;45178;-70
2022/10/29 01:56:18;;;;;;;3.58;1.70;;;20.90;96.80;;;;;;6151784;23;45284;-71
2022/10/29 01:58:49;;;;;;;3.50;1.80;;;20.90;96.70;;;;;;6152120;23;45420;-70
2022/10/29 02:01:35;;;;;;;4.30;1.52;;;21.00;96.70;;;;;;6151107;23;47232;-71
2022/10/29 02:04:14;;;;;;;3.17;1.73;;;21.00;96.70;;;;;;6151501;23;45337;-70
2022/10/29 02:06:49;;;;;;;2.97;1.70;;;20.90;96.60;;;;;;6153059;23;45220;-70
2022/10/29 02:09:24;;;;;;;4.55;1.88;;;20.90;96.60;;;;;;6152901;23;45267;-70
2022/10/29 02:11:58;;;;;;;2.88;1.60;;;21.00;96.60;;;;;;6151854;23;45374;-70
2022/10/29 02:14:30;;;;;;;2.28;1.80;;;21.00;96.60;;;;;;6152401;23;45285;-70
2022/10/29 02:17:00;;;;;;;3.47;1.73;;;20.90;96.60;;;;;;6152663;23;45259;-70
2022/10/29 02:19:30;;;;;;;2.63;1.80;;;20.90;96.50;;;;;;6153154;23;45211;-70
2022/10/29 02:21:57;;;;;;;3.42;1.73;;;20.90;96.50;;;;;;6151930;23;45433;-70
2022/10/29 02:24:24;;;;;;;3.42;1.90;;;21.00;96.60;;;;;;6153039;23;45217;-70
2022/10/29 02:26:50;;;;;;;1.58;1.38;;;20.90;96.50;;;;;;6152484;23;45286;-69
2022/10/29 02:29:17;;;;;;;4.53;1.70;;;20.90;96.50;;;;;;6152937;23;45524;-70
2022/10/29 02:31:44;;;;;;;3.53;1.60;;;20.90;96.50;;;;;;6151539;23;45392;-70
2022/10/29 02:34:12;;;;;;;4.40;1.70;;;20.90;96.50;;;;;;6152900;23;45430;-70
2022/10/29 02:36:39;;;;;;;2.90;2.00;;;20.90;96.60;;;;;;6152685;23;45213;-71
2022/10/29 02:39:06;;;;;;;3.53;1.80;;;20.90;96.50;;;;;;6152279;23;45272;-70
2022/10/29 02:41:33;;;;;;;3.95;2.17;;;20.90;96.50;;;;;;6150645;23;45201;-70
2022/10/29 02:44:00;;;;;;;2.35;1.50;;;20.90;96.50;;;;;;6150738;23;45278;-70
2022/10/29 02:46:26;;;;;;;3.55;1.58;;;20.90;96.50;;;;;;6152615;23;45480;-70
2022/10/29 02:48:53;;;;;;;2.25;1.52;;;20.90;96.50;;;;;;6152679;23;45276;-70
2022/10/29 02:51:21;;;;;;;3.08;1.77;;;20.90;96.50;;;;;;6148892;23;47143;-70
2022/10/29 02:53:48;;;;;;;3.33;1.73;;;20.90;96.80;;;;;;6152637;23;45198;-70
2022/10/29 02:56:15;;;;;;;2.47;1.77;;;20.90;96.40;;;;;;6152223;23;45226;-70
2022/10/29 02:58:41;;;;;;;3.58;1.90;;;20.90;96.30;;;;;;6152919;23;45520;-70
2022/10/29 03:01:08;;;;;;;3.35;1.90;;;20.90;96.30;;;;;;6151138;23;46266;-70
2022/10/29 03:03:36;;;;;;;3.88;1.77;;;21.00;96.30;;;;;;6152397;23;45373;-70
2022/10/29 03:06:03;;;;;;;2.35;1.67;;;21.00;96.30;;;;;;6152533;23;45280;-70
2022/10/29 03:08:31;;;;;;;2.53;1.73;;;21.00;96.30;;;;;;6152141;23;45336;-70
2022/10/29 03:10:58;;;;;;;3.30;1.70;;;21.00;96.20;;;;;;6151695;23;46383;-70
2022/10/29 03:13:25;;;;;;;3.92;1.52;;;20.90;96.20;;;;;;6151866;23;45470;-70
2022/10/29 03:15:52;;;;;;;3.03;1.70;;;21.00;96.20;;;;;;6152659;23;45202;-70
2022/10/29 03:18:18;;;;;;;3.85;1.90;;;20.90;96.20;;;;;;6152184;23;45371;-70
2022/10/29 03:20:46;;;;;;;2.30;1.73;;;21.00;96.20;;;;;;6151366;23;46265;-70
2022/10/29 03:23:13;;;;;;;2.97;1.60;;;20.90;96.20;;;;;;6152391;23;45307;-70
2022/10/29 03:25:41;;;;;;;4.75;1.63;;;20.90;96.20;;;;;;6152237;23;45259;-69
2022/10/29 03:28:08;;;;;;;3.58;1.77;;;21.00;96.20;;;;;;6153933;23;45467;-69
2022/10/29 03:30:35;;;;;;;4.43;1.77;;;21.00;96.20;;;;;;6152256;23;46286;-70
2022/10/29 03:33:02;;;;;;;2.95;1.63;;;21.00;96.20;;;;;;6152709;23;45414;-70
2022/10/29 03:35:29;;;;;;;3.45;2.00;;;20.90;96.20;;;;;;6152401;23;45292;-70
2022/10/29 03:37:56;;;;;;;2.53;1.67;;;21.00;96.20;;;;;;6153185;23;45258;-70
2022/10/29 03:40:22;;;;;;;2.15;1.67;;;21.00;96.20;;;;;;6151366;23;47395;-70
2022/10/29 03:42:50;;;;;;;2.22;1.52;;;21.00;96.30;;;;;;6151963;23;45222;-70
2022/10/29 03:45:17;;;;;;;3.03;1.88;;;21.00;96.30;;;;;;6153040;23;45283;-69
2022/10/29 03:47:44;;;;;;;3.22;1.80;;;21.00;96.30;;;;;;6153272;23;45520;-70
2022/10/29 03:50:11;;;;;;;2.47;1.90;;;21.00;96.30;;;;;;6150077;23;46632;-71
2022/10/29 03:52:38;;;;;;;2.60;1.60;;;20.90;96.20;;;;;;6153188;23;45985;-70
2022/10/29 03:55:06;;;;;;;4.03;1.70;;;21.00;96.20;;;;;;6153563;23;45304;-70
2022/10/29 03:57:32;;;;;;;2.97;1.60;;;20.90;96.20;;;;;;6153296;23;45502;-70
2022/10/29 04:00:03;;;;;;;2.80;1.70;;;21.00;96.20;;;;;;6152245;23;46263;-72
2022/10/29 04:02:30;;;;;;;2.95;1.75;;;21.00;96.20;;;;;;6153305;23;45208;-70
2022/10/29 04:04:57;;;;;;;2.30;1.70;;;21.00;96.20;;;;;;6153154;23;45217;-69
2022/10/29 04:07:24;;;;;;;2.22;1.63;;;21.00;96.20;;;;;;6153273;23;45210;-70
2022/10/29 04:09:51;;;;;;;2.45;1.60;;;20.90;96.10;;;;;;6152600;23;46560;-70
2022/10/29 04:12:17;;;;;;;2.83;1.85;;;21.00;96.10;;;;;;6152577;23;45246;-70
2022/10/29 04:14:45;;;;;;;4.10;1.88;;;21.00;96.10;;;;;;6153502;23;45232;-71
2022/10/29 04:17:13;;;;;;;4.45;2.28;;;21.00;96.10;;;;;;6152885;23;45254;-70
2022/10/29 04:19:40;;;;;;;4.60;1.90;;;20.90;96.10;;;;;;6152620;23;46429;-70
2022/10/29 04:22:07;;;;;;;4.43;1.88;;;21.00;96.10;;;;;;6151850;23;45276;-70
2022/10/29 04:24:34;;;;;;;4.25;2.03;;;20.90;96.10;;;;;;6153416;23;45193;-70
2022/10/29 04:27:01;;;;;;;3.38;1.85;;;21.00;96.10;;;;;;6152998;23;45290;-71
2022/10/29 04:29:27;;;;;;;3.38;1.65;;;20.90;96.10;;;;;;6152881;23;47339;-70
2022/10/29 04:31:54;;;;;;;3.05;1.55;;;21.00;96.10;;;;;;6152630;23;45518;-70
2022/10/29 04:34:22;;;;;;;2.70;1.63;;;20.90;96.10;;;;;;6152532;23;45462;-70
2022/10/29 04:36:51;;;;;;;4.80;1.83;;;21.00;96.20;;;;;;6153467;23;45387;-70
2022/10/29 04:39:17;;;;;;;4.25;2.03;;;20.90;96.20;;;;;;6152122;23;45295;-70
2022/10/29 04:41:46;;;;;;;2.67;1.70;;;20.90;96.20;;;;;;6151507;23;45321;-70
2022/10/29 04:44:13;;;;;;;4.05;1.83;;;21.00;96.10;;;;;;6153963;23;45236;-70
2022/10/29 04:46:40;;;;;;;4.65;1.80;;;21.00;96.10;;;;;;6152996;23;45506;-69
2022/10/29 04:49:07;;;;;;;4.30;1.77;;;21.00;96.20;;;;;;6152095;23;45397;-70
2022/10/29 04:51:35;;;;;;;4.03;1.88;;;20.90;96.20;;;;;;6149409;23;45434;-70
2022/10/29 04:54:01;;;;;;;4.07;1.88;;;21.00;96.20;;;;;;6153084;23;45310;-70
2022/10/29 04:56:29;;;;;;;2.80;1.75;;;20.90;96.20;;;;;;6153262;23;45616;-70
2022/10/29 04:58:56;;;;;;;1.95;1.75;;;21.00;96.20;;;;;;6152794;23;46046;-70
2022/10/29 05:01:22;;;;;;;2.85;1.73;;;21.00;96.20;;;;;;6152442;23;45214;-71
2022/10/29 05:03:49;;;;;;;3.55;1.88;;;21.00;96.20;;;;;;6152475;23;45236;-70
2022/10/29 05:06:16;;;;;;;2.63;1.50;;;21.00;96.20;;;;;;6153016;23;45607;-70
2022/10/29 05:08:44;;;;;;;2.78;1.98;;;20.90;96.20;;;;;;6151861;23;46599;-71
2022/10/29 05:11:11;;;;;;;1.92;1.33;;;21.00;96.20;;;;;;6152377;23;45244;-70
2022/10/29 05:13:38;;;;;;;3.60;1.70;;;20.90;96.20;;;;;;6153032;23;45272;-69
2022/10/29 05:16:05;;;;;;;2.63;1.73;;;20.90;96.20;;;;;;6151063;23;45350;-69
2022/10/29 05:18:32;;;;;;;3.85;1.83;;;20.90;96.20;;;;;;6152700;23;47789;-69
2022/10/29 05:20:58;;;;;;;3.67;1.90;;;20.90;96.20;;;;;;6152162;23;45230;-69
2022/10/29 05:23:25;;;;;;;2.60;1.55;;;20.90;96.20;;;;;;6152300;23;45284;-69
2022/10/29 05:25:55;;;;;;;2.80;1.48;;;20.90;96.30;;;;;;6153071;23;45322;-69
2022/10/29 05:28:23;;;;;;;2.10;1.50;;;20.90;96.20;;;;;;6152499;23;47112;-70
2022/10/29 05:30:52;;;;;;;3.15;2.03;;;20.90;96.20;;;;;;6151836;23;45221;-69
2022/10/29 05:33:21;;;;;;;2.53;1.60;;;20.90;96.20;;;;;;6152289;23;45268;-69
2022/10/29 05:35:48;;;;;;;2.35;1.65;;;20.90;96.20;;;;;;6153203;23;45346;-70
2022/10/29 05:38:15;;;;;;;1.75;1.40;;;20.90;96.10;;;;;;6151757;23;46624;-69
2022/10/29 05:40:43;;;;;;;2.53;1.52;;;20.90;96.20;;;;;;6148119;23;45393;-70
2022/10/29 05:43:12;;;;;;;2.05;1.50;;;20.90;96.10;;;;;;6151774;23;45333;-69
2022/10/29 05:45:39;;;;;;;4.13;1.52;;;20.90;96.20;;;;;;6150214;23;45489;-69
2022/10/29 05:48:06;;;;;;;2.03;1.60;;;20.90;96.20;;;;;;6151487;23;48301;-70
2022/10/29 05:50:34;;;;;;;3.92;1.80;;;20.90;96.10;;;;;;6147136;23;45296;-69
2022/10/29 05:53:02;;;;;;;2.08;1.73;;;20.90;96.20;;;;;;6152185;23;45556;-71
2022/10/29 05:55:31;;;;;;;4.80;1.60;;;20.90;96.20;;;;;;6152645;23;45531;-69
2022/10/29 05:57:59;;;;;;;3.03;1.70;;;20.90;96.20;;;;;;6152300;23;45382;-70
2022/10/29 06:00:30;;;;;;;3.63;1.75;;;20.90;96.20;;;;;;6151986;23;45726;-69
2022/10/29 06:02:57;;;;;;;5.30;1.65;;;20.90;96.20;;;;;;6152512;23;45346;-70
2022/10/29 06:05:24;;;;;;;2.72;1.63;;;20.90;96.20;;;;;;6152586;23;45421;-69
2022/10/29 06:07:55;;;;;;;2.35;1.80;;;20.90;96.20;;;;;;6152626;23;45264;-70
2022/10/29 06:10:23;;;;;;;4.03;1.85;;;20.90;96.20;;;;;;6150864;23;45341;-71
2022/10/29 06:12:50;;;;;;;2.60;1.73;;;20.90;96.20;;;;;;6153216;23;45455;-69
2022/10/29 06:15:19;;;;;;;2.42;1.60;;;20.90;96.20;;;;;;6152088;23;45413;-69
2022/10/29 06:17:48;;;;;;;3.53;1.80;;;20.90;96.30;;;;;;6151582;23;46302;-69
2022/10/29 06:20:17;;;;;;;3.47;1.70;;;20.90;96.30;;;;;;6151303;23;45373;-70
2022/10/29 06:22:46;;;;;;;3.17;1.63;;;20.90;96.20;;;;;;6151773;23;45370;-69
2022/10/29 06:25:13;;;;;;;1.58;1.30;;;20.90;96.20;;;;;;6152901;23;45368;-69
2022/10/29 06:27:41;;;;;;;2.63;1.60;;;20.90;96.20;;;;;;6151322;23;46435;-69
2022/10/29 06:30:09;;;;;;;2.75;1.70;;;20.90;96.20;;;;;;6151882;23;45281;-70
2022/10/29 06:32:36;;;;;;;2.22;1.67;;;20.90;96.20;;;;;;6152130;23;45338;-69
2022/10/29 06:35:06;;;;;;;3.85;1.63;;;20.90;96.10;;;;;;6152384;23;45518;-70
2022/10/29 06:37:37;;;;;;;1.67;1.27;;;20.90;96.10;;;;;;6126807;23;47189;-69
2022/10/29 06:40:05;;;;;;;3.67;1.70;;;20.90;96.30;;;;;;6152325;23;45243;-70
2022/10/29 06:42:32;;;;;;;2.63;1.63;;;20.80;96.30;;;;;;6149947;23;45300;-70
2022/10/29 06:44:59;;;;;;;4.00;1.80;;;20.90;96.30;;;;;;6150117;23;45602;-70
2022/10/29 06:47:27;;;;;;;3.08;1.67;;;20.80;96.30;;;;;;6150418;23;48030;-70
2022/10/29 06:49:54;;;;;;;4.60;1.70;;;20.90;96.30;;;;;;6149858;23;45441;-69
2022/10/29 06:52:23;;;;;;;3.00;1.73;;;20.90;96.30;;;;;;6150400;23;45442;-69
2022/10/29 06:54:50;;;;;;;3.95;1.70;;;20.80;96.20;;;;;;6152323;23;45361;-69
2022/10/29 06:57:17;;;;;;;2.33;1.58;;;20.90;96.30;;;;;;6151707;23;46223;-69
2022/10/29 06:59:44;;;;;;;3.40;1.70;;;20.90;96.30;;;;;;6152348;23;45258;-70
2022/10/29 07:02:14;;;;;;;2.95;2.03;;;20.80;96.20;;;;;;6150213;23;45249;-69
2022/10/29 07:04:41;;;;;;;2.60;1.20;;;20.90;96.20;;;;;;6152124;23;45605;-69
2022/10/29 07:07:08;;;;;;;4.40;1.60;;;20.90;96.20;;;;;;6151348;23;45265;-69
2022/10/29 07:09:37;;;;;;;1.48;1.10;;;20.80;96.10;;;;;;6152085;23;45297;-70
2022/10/29 07:12:04;;;;;;;4.88;1.60;;;20.80;96.10;;;;;;6152184;23;45347;-69
2022/10/29 07:14:33;;;;;;;2.38;1.45;;;20.90;96.20;;;;;;6152224;23;45341;-69
2022/10/29 07:17:00;;;;;;;3.22;1.70;;;20.80;96.10;;;;;;6151939;23;45432;-69
2022/10/29 07:19:27;;;;;;;3.50;1.95;;;20.90;96.10;;;;;;6152257;23;45374;-69
2022/10/29 07:21:54;;;;;;;3.38;1.70;;;20.80;96.10;;;;;;6151868;23;45476;-69
2022/10/29 07:24:21;;;;;;;2.95;1.60;;;20.90;96.10;;;;;;6153094;23;45367;-69
2022/10/29 07:26:50;;;;;;;1.70;1.40;;;20.90;96.10;;;;;;6151840;23;46412;-69
2022/10/29 07:29:17;;;;;;;3.10;1.70;;;20.90;96.10;;;;;;6152273;23;45413;-69
2022/10/29 07:31:44;;;;;;;2.80;1.60;;;20.90;96.10;;;;;;6151414;23;45333;-70
2022/10/29 07:34:12;;;;;;;2.92;1.65;;;20.90;96.10;;;;;;6152626;23;45396;-69
2022/10/29 07:36:39;;;;;;;2.22;1.50;;;20.90;96.00;;;;;;6152106;23;45383;-70
2022/10/29 07:39:07;;;;;;;4.00;1.75;;;20.90;96.00;;;;;;6151564;23;45280;-70
2022/10/29 07:41:35;;;;;;;3.88;1.60;;;20.90;96.00;;;;;;6151029;23;45285;-70
2022/10/29 07:44:04;;;;;;;2.85;1.50;;;20.90;96.00;;;;;;6152004;23;45375;-70
2022/10/29 07:46:31;;;;;;;3.65;1.80;;;20.90;96.00;;;;;;6151537;23;47350;-70
2022/10/29 07:48:58;;;;;;;3.63;1.60;;;20.90;95.90;;;;;;6152200;23;46095;-70
2022/10/29 07:51:26;;;;;;;4.60;1.63;;;20.90;95.90;;;;;;6151020;23;45214;-70
2022/10/29 07:53:53;;;;;;;4.82;1.80;;;20.90;95.90;;;;;;6152187;23;45307;-70
2022/10/29 07:56:20;;;;;;;3.22;1.40;;;20.90;95.90;;;;;;6151449;23;48049;-70
2022/10/29 07:58:47;;;;;;;4.38;1.60;;;20.90;95.90;;;;;;6152149;23;45301;-70
2022/10/29 08:01:16;;;;;;;2.63;1.70;;;20.90;95.90;;;;;;6150794;23;45409;-70
2022/10/29 08:03:43;;;;;;;2.95;1.40;;;20.90;95.90;;;;;;6152012;23;45206;-69
2022/10/29 08:06:10;;;;;;;1.50;1.23;;;20.90;95.90;;;;;;6151826;23;45522;-69
2022/10/29 08:08:37;;;;;;;4.10;1.70;;;20.90;95.90;;;;;;6151372;23;45262;-70
2022/10/29 08:11:05;;;;;;;4.47;1.80;;;20.90;95.80;;;;;;6150873;23;45285;-69
2022/10/29 08:13:33;;;;;;;2.35;1.60;;;20.90;95.90;;;;;;6151709;23;45533;-69
2022/10/29 08:16:00;;;;;;;2.83;1.55;;;20.90;95.80;;;;;;6153218;23;47410;-69
2022/10/29 08:18:29;;;;;;;1.48;1.30;;;20.90;95.80;;;;;;6153705;23;45377;-69
2022/10/29 08:20:56;;;;;;;3.90;1.70;;;20.90;95.70;;;;;;6150448;23;45292;-70
2022/10/29 08:23:23;;;;;;;2.70;1.75;;;20.90;95.70;;;;;;6152756;23;45285;-70
2022/10/29 08:25:52;;;;;;;3.03;1.83;;;20.90;95.70;;;;;;6153296;23;45319;-70
2022/10/29 08:28:19;;;;;;;2.90;1.17;;;21.00;95.80;;;;;;6153593;23;45288;-69
2022/10/29 08:30:50;;;;;;;2.20;1.50;;;20.90;95.70;;;;;;6152374;23;45294;-70
2022/10/29 08:33:19;;;;;;;3.22;1.50;;;20.90;95.70;;;;;;6153794;23;45429;-70
2022/10/29 08:35:48;;;;;;;2.25;1.40;;;20.90;95.70;;;;;;6153228;23;46030;-70
2022/10/29 08:38:15;;;;;;;4.05;2.17;;;20.90;95.70;;;;;;6152699;23;45183;-69
2022/10/29 08:40:54;;;;;;;2.38;1.85;;;20.90;95.70;;;;;;6152871;23;45345;-70
2022/10/29 08:43:51;;;;;;;4.07;1.70;;;20.90;95.70;;;;;;6153090;23;45395;-70
2022/10/29 08:46:24;;;;;;;3.08;1.60;;;20.90;95.70;;;;;;6152863;23;46995;-70
2022/10/29 08:48:54;;;;;;;2.47;1.58;;;20.90;95.80;;;;;;6152712;23;45221;-70
2022/10/29 08:51:28;;;;;;;2.17;1.50;;;20.90;95.80;;;;;;6152685;23;45322;-70
2022/10/29 08:53:57;;;;;;;2.45;1.42;;;20.90;95.80;;;;;;6152768;23;45384;-70
2022/10/29 08:56:27;;;;;;;3.75;1.98;;;20.90;95.80;;;;;;6153191;23;47322;-70
2022/10/29 08:59:00;;;;;;;2.50;1.27;;;20.90;95.80;;;;;;6153185;23;45314;-70
2022/10/29 09:01:28;;;;;;;3.20;1.27;;;20.90;95.80;;;;;;6151726;23;45246;-69
2022/10/29 09:03:55;;;;;;;3.67;1.67;;;20.90;95.80;;;;;;6153178;23;45338;-70
2022/10/29 09:06:33;;;;;;;1.98;1.40;;;20.90;95.80;;;;;;6152278;23;46075;-69
2022/10/29 09:09:12;;;;;;;2.97;1.45;;;20.90;95.70;;;;;;6153013;23;45367;-71
2022/10/29 09:12:05;;;;;;;3.53;1.50;;;20.90;95.70;;;;;;6152826;23;45346;-70
2022/10/29 09:14:44;;;;;;;3.47;1.52;;;20.90;95.70;;;;;;6153490;23;45306;-70
2022/10/29 09:17:21;;;;;;;2.20;1.27;;;20.90;95.60;;;;;;6152229;23;45281;-69
2022/10/29 09:20:00;;;;;;;3.45;1.73;;;20.90;95.60;;;;;;6153362;23;45287;-70
2022/10/29 09:22:35;;;;;;;1.60;1.35;;;21.00;95.60;;;;;;6152472;23;45358;-70
2022/10/29 09:25:12;;;;;;;2.30;1.48;;;20.90;95.60;;;;;;6153235;23;45153;-69
2022/10/29 09:27:53;;;;;;;1.88;1.40;;;21.00;95.60;;;;;;6152699;23;48192;-69
2022/10/29 09:30:20;;;;;;;2.10;1.50;;;20.90;95.60;;;;;;6152370;23;45767;-70
2022/10/29 09:32:56;;;;;;;3.60;1.50;;;21.00;95.60;;;;;;6152364;23;45294;-70
2022/10/29 09:35:36;;;;;;;4.05;1.55;;;21.00;95.60;;;;;;6152869;23;45382;-69
2022/10/29 09:38:12;;;;;;;2.60;1.40;;;20.90;95.60;;;;;;6152517;23;48050;-70
2022/10/29 09:40:41;;;;;;;3.67;2.10;;;20.90;95.60;;;;;;6151461;23;45421;-70
2022/10/29 09:43:19;;;;;;;2.92;1.55;;;20.90;95.60;;;;;;6153008;23;45295;-70
2022/10/29 09:45:53;;;;;;;1.92;1.17;;;20.90;95.60;;;;;;6152287;23;45352;-70
2022/10/29 09:48:26;;;;;;;1.88;1.35;;;21.00;95.60;;;;;;6153143;23;47009;-70
2022/10/29 09:51:01;;;;;;;3.95;1.40;;;20.90;95.60;;;;;;6152191;23;45924;-70
2022/10/29 09:53:29;;;;;;;2.03;1.10;;;20.90;95.60;;;;;;6152736;23;45217;-69
2022/10/29 09:55:56;;;;;;;1.67;1.13;;;20.90;95.60;;;;;;6153300;23;45202;-71
2022/10/29 09:58:25;;;;;;;2.50;1.48;;;20.90;95.60;;;;;;6151196;23;46367;-69
2022/10/29 10:00:53;;;;;;;3.03;1.40;;;20.90;95.60;;;;;;6150203;23;45322;-70
2022/10/29 10:03:24;;;;;;;4.40;1.40;;;20.90;95.90;;;;;;6152832;23;45342;-70
2022/10/29 10:06:02;;;;;;;2.35;1.58;;;20.90;95.50;;;;;;6152948;23;45441;-70
2022/10/29 10:08:31;;;;;;;1.50;1.23;;;20.90;95.50;;;;;;6152911;23;46525;-70
2022/10/29 10:11:00;;;;;;;2.10;1.40;;;21.00;95.50;;;;;;6151295;23;45197;-70
2022/10/29 10:13:29;;;;;;;1.80;1.30;;;21.00;95.50;;;;;;6152908;23;45420;-70
2022/10/29 10:15:58;;;;;;;3.30;1.63;;;21.00;95.50;;;;;;6152205;23;45258;-70
2022/10/29 10:18:27;;;;;;;1.67;1.20;;;21.00;95.50;;;;;;6152763;23;49472;-70
2022/10/29 10:21:03;;;;;;;2.45;1.40;;;21.00;95.50;;;;;;6150369;23;45608;-70
2022/10/29 10:23:41;;;;;;;2.28;1.58;;;21.00;95.50;;;;;;6153087;23;45227;-69
2022/10/29 10:26:35;;;;;;;2.08;1.40;;;21.00;95.50;;;;;;6152944;23;45648;-69
2022/10/29 10:29:13;;;;;;;2.35;1.30;;;21.00;95.50;;;;;;6152925;23;46686;-70
2022/10/29 10:31:41;;;;;;;4.45;1.70;;;21.00;95.50;;;;;;6152003;23;45309;-70
2022/10/29 10:34:14;;;;;;;3.63;1.20;;;21.00;95.50;;;;;;6152797;23;45265;-70
2022/10/29 10:36:44;;;;;;;3.17;1.60;;;21.00;95.50;;;;;;6152185;23;45282;-70
2022/10/29 10:39:22;;;;;;;2.38;1.40;;;21.00;95.50;;;;;;6152145;23;45313;-70
2022/10/29 10:41:50;;;;;;;2.15;1.40;;;21.00;95.50;;;;;;6151953;23;45265;-70
2022/10/29 10:44:19;;;;;;;2.92;1.50;;;21.00;95.50;;;;;;6152168;23;45290;-70
2022/10/29 10:46:47;;;;;;;2.67;1.30;;;21.00;95.50;;;;;;6152876;23;45176;-70
2022/10/29 10:49:16;;;;;;;1.95;1.23;;;21.00;95.50;;;;;;6151671;23;45365;-71
2022/10/29 10:51:45;;;;;;;3.20;1.30;;;21.00;95.50;;;;;;6151995;23;45367;-70
2022/10/29 10:54:31;;;;;;;2.45;1.45;;;21.00;95.50;;;;;;6152569;23;45229;-70
2022/10/29 10:57:00;;;;;;;3.78;1.38;;;21.00;95.40;;;;;;6152654;23;45340;-70
2022/10/29 10:59:32;;;;;;;1.60;1.30;;;21.00;95.40;;;;;;6152152;23;46043;-70
2022/10/29 11:01:59;;;;;;;2.45;1.30;;;21.00;95.40;;;;;;6149314;23;45374;-69
2022/10/29 11:04:31;;;;;;;2.45;1.30;;;21.00;95.40;;;;;;6152799;23;45350;-70
2022/10/29 11:07:02;;;;;;;2.70;1.30;;;21.00;95.40;;;;;;6152084;23;45293;-71
2022/10/29 11:09:35;;;;;;;2.45;1.40;;;21.00;95.40;;;;;;6152374;23;47106;-70
2022/10/29 11:12:06;;;;;;;1.52;1.10;;;21.00;95.40;;;;;;6151176;23;45395;-70
2022/10/29 11:14:35;;;;;;;1.65;1.02;;;21.00;95.40;;;;;;6152282;23;45420;-70
2022/10/29 11:17:04;;;;;;;2.70;1.30;;;21.00;95.40;;;;;;6152596;23;45166;-70
2022/10/29 11:19:38;;;;;;;2.22;1.20;;;21.00;95.40;;;;;;6151904;23;47510;-70
2022/10/29 11:22:13;;;;;;;2.17;1.40;;;21.00;95.40;;;;;;6151943;23;45714;-70
2022/10/29 11:24:47;;;;;;;1.90;1.20;;;21.00;95.40;;;;;;6152512;23;45318;-70
2022/10/29 11:27:25;;;;;;;1.55;1.10;;;21.00;95.40;;;;;;6152987;23;45443;-70
2022/10/29 11:30:01;;;;;;;1.80;1.35;;;21.00;95.40;;;;;;6151672;23;45330;-70
2022/10/29 11:32:38;;;;;;;1.52;1.20;;;21.00;95.40;;;;;;6151344;23;45307;-70
2022/10/29 11:35:11;;;;;;;2.00;1.10;;;21.00;95.40;;;;;;6152641;23;45270;-70
2022/10/29 11:37:44;;;;;;;2.03;1.15;;;21.00;95.30;;;;;;6152088;23;45353;-70
2022/10/29 11:40:17;;;;;;;2.33;1.20;;;21.00;95.40;;;;;;6151924;23;48208;-70
2022/10/29 11:42:44;;;;;;;2.47;1.20;;;21.00;95.40;;;;;;6151027;23;45358;-70
2022/10/29 11:45:14;;;;;;;2.97;1.58;;;21.00;95.40;;;;;;6152067;23;45574;-71
2022/10/29 11:48:06;;;;;;;2.75;1.30;;;21.00;95.30;;;;;;6152374;23;45305;-70
2022/10/29 11:50:40;;;;;;;1.65;1.15;;;21.00;95.30;;;;;;6153249;23;46370;-69
2022/10/29 11:53:20;;;;;;;1.35;1.20;;;21.00;95.30;;;;;;6152305;23;45262;-70
2022/10/29 11:55:56;;;;;;;2.55;1.20;;;21.00;95.30;;;;;;6153518;23;45350;-71
2022/10/29 11:58:32;;;;;;;2.55;1.38;;;21.00;95.30;;;;;;6154063;23;45395;-70
2022/10/29 12:01:05;;;;;;;2.20;1.52;;;21.00;95.30;;;;;;6150851;23;47185;-70
2022/10/29 12:03:52;;;;;;;1.55;1.13;;;21.00;95.30;;;;;;6153543;23;45334;-70
2022/10/29 12:06:24;;;;;;;1.85;1.38;;;21.10;95.30;;;;;;6153538;23;45250;-70
2022/10/29 12:09:02;;;;;;;1.58;1.02;;;21.10;95.30;;;;;;6153537;23;45397;-71
2022/10/29 12:11:37;;;;;;;2.20;1.38;;;21.00;95.30;;;;;;6151899;23;47152;-70
2022/10/29 12:14:12;;;;;;;2.33;1.23;;;21.00;95.30;;;;;;6153638;23;45268;-70
2022/10/29 12:16:49;;;;;;;3.47;1.83;;;21.00;95.30;;;;;;6153090;23;45382;-70
2022/10/29 12:19:31;;;;;;;1.85;1.38;;;21.00;95.30;;;;;;6153565;23;45155;-71
2022/10/29 12:22:06;;;;;;;3.17;1.50;;;21.10;95.40;;;;;;6152540;23;46204;-70
2022/10/29 12:24:48;;;;;;;2.55;1.45;;;21.10;95.40;;;;;;6153398;23;45166;-70
2022/10/29 12:27:23;;;;;;;1.88;1.40;;;21.00;95.40;;;;;;6153598;23;45404;-70
2022/10/29 12:29:57;;;;;;;2.60;1.55;;;21.00;95.40;;;;;;6153330;23;45301;-70
2022/10/29 12:32:29;;;;;;;1.52;1.20;;;21.00;95.40;;;;;;6152584;23;45329;-70
2022/10/29 12:35:01;;;;;;;2.05;1.38;;;21.00;95.30;;;;;;6152887;23;45314;-70
2022/10/29 12:37:37;;;;;;;1.95;1.27;;;21.00;95.40;;;;;;6153510;23;45238;-71
2022/10/29 12:40:14;;;;;;;2.17;1.33;;;21.10;95.40;;;;;;6152809;23;45562;-71
2022/10/29 12:42:43;;;;;;;1.55;1.08;;;21.00;95.40;;;;;;6152638;23;45164;-70
2022/10/29 12:45:28;;;;;;;3.33;1.35;;;21.00;95.30;;;;;;6152248;23;45365;-70
2022/10/29 12:48:01;;;;;;;2.60;1.20;;;21.10;95.40;;;;;;6153691;23;45243;-70
2022/10/29 12:50:39;;;;;;;2.25;1.20;;;21.10;95.40;;;;;;6153590;23;45283;-70
2022/10/29 12:53:17;;;;;;;2.10;1.17;;;21.10;95.40;;;;;;6151872;23;48781;-70
2022/10/29 12:55:45;;;;;;;2.58;1.30;;;21.10;95.40;;;;;;6153521;23;45260;-70
2022/10/29 12:58:48;;;;;;;1.80;1.20;;;21.10;95.40;;;;;;6153190;23;45319;-70
2022/10/29 13:01:43;;;;;;;2.00;1.17;;;21.10;95.40;;;;;;6143119;23;45205;-70
2022/10/29 13:04:24;;;;;;;2.03;1.20;;;21.10;95.40;;;;;;6152965;23;47568;-70